Terminal Aerodrome Forecast
Issued by NWS

Home | Current Version | Previous Version | Text Only | Print | Product List | Glossary On
Versions: 1 2 3 4 5 6 7 8 9 10 11 12 13 14 15 16 17 18 19 20 21 22 23 24
000
FTUS42 KFFC 140500
TAFPDK
TAF
KPDK 140531Z 1406/1506 00000KT P6SM SKC
     FM141300 25004KT P6SM FEW040
     FM141800 24008KT P6SM BKN050 PROB30 1418/1424 TSRA BKN050CB
     FM150200 24005KT P6SM SCT050=

USA.gov is the U.S. government's official web portal to all federal, state and local government web resources and services.